sensor_id;sensor_type;location;lat;lon;timestamp;P1;durP1;ratioP1;P2;durP2;ratioP2
40599;SDS011;26309;50.924;4.754;2023-02-01T00:00:19;29.57;;;10.43;;
40599;SDS011;26309;50.924;4.754;2023-02-01T00:02:45;26.80;;;9.60;;
40599;SDS011;26309;50.924;4.754;2023-02-01T00:05:11;30.20;;;9.50;;
40599;SDS011;26309;50.924;4.754;2023-02-01T00:07:37;37.90;;;10.00;;
40599;SDS011;26309;50.924;4.754;2023-02-01T00:10:04;24.47;;;8.90;;
40599;SDS011;26309;50.924;4.754;2023-02-01T00:12:31;24.27;;;8.53;;
40599;SDS011;26309;50.924;4.754;2023-02-01T00:14:57;27.83;;;8.80;;
40599;SDS011;26309;50.924;4.754;2023-02-01T00:17:23;27.43;;;8.37;;
40599;SDS011;26309;50.924;4.754;2023-02-01T00:19:52;23.27;;;9.07;;
40599;SDS011;26309;50.924;4.754;2023-02-01T00:22:18;28.27;;;8.23;;
40599;SDS011;26309;50.924;4.754;2023-02-01T00:24:45;29.13;;;8.63;;
40599;SDS011;26309;50.924;4.754;2023-02-01T00:27:11;26.67;;;7.43;;
40599;SDS011;26309;50.924;4.754;2023-02-01T00:29:43;24.00;;;7.63;;
40599;SDS011;26309;50.924;4.754;2023-02-01T00:32:10;26.40;;;8.37;;
40599;SDS011;26309;50.924;4.754;2023-02-01T00:34:35;19.03;;;8.50;;
40599;SDS011;26309;50.924;4.754;2023-02-01T00:37:07;23.20;;;7.73;;
40599;SDS011;26309;50.924;4.754;2023-02-01T00:39:33;24.10;;;7.83;;
40599;SDS011;26309;50.924;4.754;2023-02-01T00:41:59;27.50;;;7.60;;
40599;SDS011;26309;50.924;4.754;2023-02-01T00:44:27;27.83;;;8.27;;
40599;SDS011;26309;50.924;4.754;2023-02-01T00:46:53;22.33;;;7.23;;
40599;SDS011;26309;50.924;4.754;2023-02-01T00:49:18;18.27;;;7.07;;
40599;SDS011;26309;50.924;4.754;2023-02-01T00:51:45;27.17;;;7.90;;
40599;SDS011;26309;50.924;4.754;2023-02-01T00:54:10;19.40;;;6.90;;
40599;SDS011;26309;50.924;4.754;2023-02-01T00:56:36;16.73;;;6.87;;
40599;SDS011;26309;50.924;4.754;2023-02-01T00:59:02;17.70;;;6.83;;
40599;SDS011;26309;50.924;4.754;2023-02-01T01:01:27;20.73;;;7.10;;
40599;SDS011;26309;50.924;4.754;2023-02-01T01:03:57;23.23;;;6.90;;
40599;SDS011;26309;50.924;4.754;2023-02-01T01:06:27;23.80;;;7.60;;
40599;SDS011;26309;50.924;4.754;2023-02-01T01:08:55;27.90;;;7.37;;
40599;SDS011;26309;50.924;4.754;2023-02-01T01:11:23;21.33;;;7.10;;
40599;SDS011;26309;50.924;4.754;2023-02-01T01:13:52;32.13;;;7.73;;
40599;SDS011;26309;50.924;4.754;2023-02-01T01:16:19;26.33;;;6.90;;
40599;SDS011;26309;50.924;4.754;2023-02-01T01:18:46;21.30;;;6.63;;
40599;SDS011;26309;50.924;4.754;2023-02-01T01:21:13;29.10;;;6.60;;
40599;SDS011;26309;50.924;4.754;2023-02-01T01:23:40;25.90;;;6.57;;
40599;SDS011;26309;50.924;4.754;2023-02-01T01:26:07;21.10;;;6.07;;
40599;SDS011;26309;50.924;4.754;2023-02-01T01:28:35;19.60;;;7.00;;
40599;SDS011;26309;50.924;4.754;2023-02-01T01:31:01;27.10;;;7.03;;
40599;SDS011;26309;50.924;4.754;2023-02-01T01:33:27;19.40;;;6.27;;
40599;SDS011;26309;50.924;4.754;2023-02-01T01:35:53;29.27;;;6.83;;
40599;SDS011;26309;50.924;4.754;2023-02-01T01:38:18;21.73;;;5.80;;
40599;SDS011;26309;50.924;4.754;2023-02-01T01:40:45;30.53;;;5.83;;
40599;SDS011;26309;50.924;4.754;2023-02-01T01:43:13;20.70;;;5.73;;
40599;SDS011;26309;50.924;4.754;2023-02-01T01:45:40;23.63;;;5.60;;
40599;SDS011;26309;50.924;4.754;2023-02-01T01:50:51;23.67;;;5.67;;
40599;SDS011;26309;50.924;4.754;2023-02-01T01:53:42;22.17;;;5.77;;
40599;SDS011;26309;50.924;4.754;2023-02-01T01:56:12;30.10;;;5.80;;
40599;SDS011;26309;50.924;4.754;2023-02-01T01:58:38;24.07;;;6.80;;
40599;SDS011;26309;50.924;4.754;2023-02-01T02:01:04;27.40;;;6.13;;
40599;SDS011;26309;50.924;4.754;2023-02-01T02:03:35;20.13;;;5.30;;
40599;SDS011;26309;50.924;4.754;2023-02-01T02:06:09;17.43;;;5.43;;
40599;SDS011;26309;50.924;4.754;2023-02-01T02:08:45;23.63;;;5.63;;
40599;SDS011;26309;50.924;4.754;2023-02-01T02:11:12;26.57;;;5.90;;
40599;SDS011;26309;50.924;4.754;2023-02-01T02:13:42;24.70;;;5.83;;
40599;SDS011;26309;50.924;4.754;2023-02-01T02:16:19;18.07;;;5.27;;
40599;SDS011;26309;50.924;4.754;2023-02-01T02:21:56;22.53;;;5.33;;
40599;SDS011;26309;50.924;4.754;2023-02-01T02:30:41;17.77;;;4.50;;
40599;SDS011;26309;50.924;4.754;2023-02-01T02:33:40;21.53;;;4.63;;
40599;SDS011;26309;50.924;4.754;2023-02-01T02:39:11;18.70;;;4.50;;
40599;SDS011;26309;50.924;4.754;2023-02-01T02:47:35;24.23;;;4.33;;
40599;SDS011;26309;50.924;4.754;2023-02-01T02:53:16;18.13;;;4.70;;
40599;SDS011;26309;50.924;4.754;2023-02-01T02:56:08;23.23;;;5.07;;
40599;SDS011;26309;50.924;4.754;2023-02-01T02:58:55;20.50;;;4.53;;
40599;SDS011;26309;50.924;4.754;2023-02-01T03:01:42;20.27;;;4.27;;
40599;SDS011;26309;50.924;4.754;2023-02-01T03:04:27;19.33;;;4.33;;
40599;SDS011;26309;50.924;4.754;2023-02-01T03:06:53;22.60;;;4.53;;
40599;SDS011;26309;50.924;4.754;2023-02-01T03:09:33;17.00;;;4.47;;
40599;SDS011;26309;50.924;4.754;2023-02-01T03:12:04;20.87;;;4.63;;
40599;SDS011;26309;50.924;4.754;2023-02-01T03:14:54;20.23;;;4.30;;
40599;SDS011;26309;50.924;4.754;2023-02-01T03:17:30;27.93;;;5.17;;
40599;SDS011;26309;50.924;4.754;2023-02-01T03:20:01;31.03;;;5.27;;
40599;SDS011;26309;50.924;4.754;2023-02-01T03:22:30;25.10;;;5.00;;
40599;SDS011;26309;50.924;4.754;2023-02-01T03:25:03;29.20;;;5.57;;
40599;SDS011;26309;50.924;4.754;2023-02-01T03:27:40;21.80;;;4.50;;
40599;SDS011;26309;50.924;4.754;2023-02-01T03:30:11;20.50;;;5.40;;
40599;SDS011;26309;50.924;4.754;2023-02-01T03:32:45;22.13;;;4.60;;
40599;SDS011;26309;50.924;4.754;2023-02-01T03:41:07;21.87;;;4.87;;
40599;SDS011;26309;50.924;4.754;2023-02-01T03:44:35;19.93;;;4.77;;
40599;SDS011;26309;50.924;4.754;2023-02-01T03:46:49;18.50;;;5.03;;
40599;SDS011;26309;50.924;4.754;2023-02-01T03:49:29;21.67;;;4.40;;
40599;SDS011;26309;50.924;4.754;2023-02-01T03:52:00;17.83;;;4.43;;
40599;SDS011;26309;50.924;4.754;2023-02-01T03:54:28;23.50;;;5.40;;
40599;SDS011;26309;50.924;4.754;2023-02-01T03:56:56;23.43;;;4.43;;
40599;SDS011;26309;50.924;4.754;2023-02-01T03:59:26;21.87;;;4.80;;
40599;SDS011;26309;50.924;4.754;2023-02-01T04:01:52;17.03;;;4.73;;
40599;SDS011;26309;50.924;4.754;2023-02-01T04:04:18;21.43;;;4.90;;
40599;SDS011;26309;50.924;4.754;2023-02-01T04:06:47;24.47;;;5.23;;
40599;SDS011;26309;50.924;4.754;2023-02-01T04:09:13;20.73;;;5.17;;
40599;SDS011;26309;50.924;4.754;2023-02-01T04:11:39;21.37;;;5.33;;
40599;SDS011;26309;50.924;4.754;2023-02-01T04:14:05;17.43;;;4.77;;
40599;SDS011;26309;50.924;4.754;2023-02-01T04:16:31;26.93;;;5.37;;
40599;SDS011;26309;50.924;4.754;2023-02-01T04:18:57;23.43;;;5.03;;
40599;SDS011;26309;50.924;4.754;2023-02-01T04:21:24;19.63;;;4.93;;
40599;SDS011;26309;50.924;4.754;2023-02-01T04:23:51;25.97;;;4.87;;
40599;SDS011;26309;50.924;4.754;2023-02-01T04:26:17;24.80;;;4.67;;
40599;SDS011;26309;50.924;4.754;2023-02-01T04:28:44;17.83;;;4.53;;
40599;SDS011;26309;50.924;4.754;2023-02-01T04:31:15;20.80;;;4.57;;
40599;SDS011;26309;50.924;4.754;2023-02-01T04:33:42;22.60;;;5.23;;
40599;SDS011;26309;50.924;4.754;2023-02-01T04:36:08;29.63;;;5.27;;
40599;SDS011;26309;50.924;4.754;2023-02-01T04:38:34;29.93;;;5.53;;
40599;SDS011;26309;50.924;4.754;2023-02-01T04:41:00;23.70;;;5.10;;
40599;SDS011;26309;50.924;4.754;2023-02-01T04:43:26;28.80;;;5.80;;
40599;SDS011;26309;50.924;4.754;2023-02-01T04:45:52;26.43;;;4.93;;
40599;SDS011;26309;50.924;4.754;2023-02-01T04:48:19;25.13;;;5.37;;
40599;SDS011;26309;50.924;4.754;2023-02-01T04:50:46;27.10;;;5.67;;
40599;SDS011;26309;50.924;4.754;2023-02-01T04:53:16;25.00;;;5.13;;
40599;SDS011;26309;50.924;4.754;2023-02-01T04:55:43;23.83;;;5.00;;
40599;SDS011;26309;50.924;4.754;2023-02-01T04:58:09;29.03;;;5.23;;
40599;SDS011;26309;50.924;4.754;2023-02-01T05:00:36;32.83;;;5.70;;
40599;SDS011;26309;50.924;4.754;2023-02-01T05:03:05;19.67;;;5.20;;
40599;SDS011;26309;50.924;4.754;2023-02-01T05:05:31;19.70;;;4.63;;
40599;SDS011;26309;50.924;4.754;2023-02-01T05:07:57;21.70;;;5.37;;
40599;SDS011;26309;50.924;4.754;2023-02-01T05:10:22;18.33;;;5.10;;
40599;SDS011;26309;50.924;4.754;2023-02-01T05:12:48;26.33;;;5.17;;
40599;SDS011;26309;50.924;4.754;2023-02-01T05:15:32;29.70;;;5.17;;
40599;SDS011;26309;50.924;4.754;2023-02-01T05:17:58;18.67;;;4.90;;
40599;SDS011;26309;50.924;4.754;2023-02-01T05:20:24;28.50;;;5.10;;
40599;SDS011;26309;50.924;4.754;2023-02-01T05:22:50;30.27;;;5.00;;
40599;SDS011;26309;50.924;4.754;2023-02-01T05:25:16;28.40;;;5.13;;
40599;SDS011;26309;50.924;4.754;2023-02-01T05:27:42;19.83;;;5.80;;
40599;SDS011;26309;50.924;4.754;2023-02-01T05:30:08;30.20;;;5.47;;
40599;SDS011;26309;50.924;4.754;2023-02-01T05:32:35;25.10;;;5.30;;
40599;SDS011;26309;50.924;4.754;2023-02-01T05:35:00;20.67;;;4.80;;
40599;SDS011;26309;50.924;4.754;2023-02-01T05:37:26;22.20;;;4.57;;
40599;SDS011;26309;50.924;4.754;2023-02-01T05:39:52;30.37;;;5.07;;
40599;SDS011;26309;50.924;4.754;2023-02-01T05:42:18;26.80;;;5.27;;
40599;SDS011;26309;50.924;4.754;2023-02-01T05:44:44;23.60;;;4.33;;
40599;SDS011;26309;50.924;4.754;2023-02-01T05:47:10;23.87;;;4.90;;
40599;SDS011;26309;50.924;4.754;2023-02-01T05:49:37;32.33;;;5.83;;
40599;SDS011;26309;50.924;4.754;2023-02-01T05:52:03;20.23;;;4.47;;
40599;SDS011;26309;50.924;4.754;2023-02-01T05:54:29;18.77;;;4.27;;
40599;SDS011;26309;50.924;4.754;2023-02-01T05:56:55;24.20;;;5.27;;
40599;SDS011;26309;50.924;4.754;2023-02-01T05:59:22;21.07;;;5.20;;
40599;SDS011;26309;50.924;4.754;2023-02-01T06:01:48;34.93;;;5.10;;
40599;SDS011;26309;50.924;4.754;2023-02-01T06:04:13;20.47;;;4.80;;
40599;SDS011;26309;50.924;4.754;2023-02-01T06:06:39;30.83;;;6.27;;
40599;SDS011;26309;50.924;4.754;2023-02-01T06:09:05;25.67;;;5.30;;
40599;SDS011;26309;50.924;4.754;2023-02-01T06:11:31;24.27;;;5.53;;
40599;SDS011;26309;50.924;4.754;2023-02-01T06:13:56;28.67;;;5.37;;
40599;SDS011;26309;50.924;4.754;2023-02-01T06:16:22;17.67;;;4.33;;
40599;SDS011;26309;50.924;4.754;2023-02-01T06:18:48;28.07;;;5.63;;
40599;SDS011;26309;50.924;4.754;2023-02-01T06:21:14;21.63;;;4.93;;
40599;SDS011;26309;50.924;4.754;2023-02-01T06:23:52;23.03;;;4.97;;
40599;SDS011;26309;50.924;4.754;2023-02-01T06:26:19;27.90;;;5.23;;
40599;SDS011;26309;50.924;4.754;2023-02-01T06:28:45;26.33;;;4.67;;
40599;SDS011;26309;50.924;4.754;2023-02-01T06:31:17;22.43;;;5.20;;
40599;SDS011;26309;50.924;4.754;2023-02-01T06:33:43;24.47;;;5.03;;
40599;SDS011;26309;50.924;4.754;2023-02-01T06:36:09;20.00;;;4.17;;
40599;SDS011;26309;50.924;4.754;2023-02-01T06:38:37;25.63;;;5.20;;
40599;SDS011;26309;50.924;4.754;2023-02-01T06:41:04;24.37;;;4.30;;
40599;SDS011;26309;50.924;4.754;2023-02-01T06:43:30;16.07;;;4.47;;
40599;SDS011;26309;50.924;4.754;2023-02-01T06:46:00;26.23;;;5.40;;
40599;SDS011;26309;50.924;4.754;2023-02-01T06:48:28;25.27;;;5.43;;
40599;SDS011;26309;50.924;4.754;2023-02-01T06:50:54;28.17;;;5.30;;
40599;SDS011;26309;50.924;4.754;2023-02-01T06:53:20;27.93;;;4.63;;
40599;SDS011;26309;50.924;4.754;2023-02-01T06:55:56;19.07;;;4.73;;
40599;SDS011;26309;50.924;4.754;2023-02-01T06:58:23;24.83;;;5.00;;
40599;SDS011;26309;50.924;4.754;2023-02-01T07:00:50;17.00;;;4.73;;
40599;SDS011;26309;50.924;4.754;2023-02-01T07:03:15;21.67;;;4.80;;
40599;SDS011;26309;50.924;4.754;2023-02-01T07:05:42;26.03;;;4.23;;
40599;SDS011;26309;50.924;4.754;2023-02-01T07:08:07;24.07;;;4.13;;
40599;SDS011;26309;50.924;4.754;2023-02-01T07:10:33;26.43;;;4.73;;
40599;SDS011;26309;50.924;4.754;2023-02-01T07:13:00;20.83;;;4.70;;
40599;SDS011;26309;50.924;4.754;2023-02-01T07:15:25;23.33;;;4.60;;
40599;SDS011;26309;50.924;4.754;2023-02-01T07:17:53;35.37;;;5.13;;
40599;SDS011;26309;50.924;4.754;2023-02-01T07:20:20;24.50;;;4.97;;
40599;SDS011;26309;50.924;4.754;2023-02-01T07:22:46;25.27;;;5.33;;
40599;SDS011;26309;50.924;4.754;2023-02-01T07:25:11;22.37;;;5.03;;
40599;SDS011;26309;50.924;4.754;2023-02-01T07:27:40;26.67;;;5.17;;
40599;SDS011;26309;50.924;4.754;2023-02-01T07:30:06;21.40;;;4.67;;
40599;SDS011;26309;50.924;4.754;2023-02-01T07:32:32;23.40;;;4.37;;
40599;SDS011;26309;50.924;4.754;2023-02-01T07:34:58;27.03;;;5.20;;
40599;SDS011;26309;50.924;4.754;2023-02-01T07:37:24;22.27;;;4.63;;
40599;SDS011;26309;50.924;4.754;2023-02-01T07:39:50;19.60;;;4.53;;
40599;SDS011;26309;50.924;4.754;2023-02-01T07:42:17;21.07;;;4.90;;
40599;SDS011;26309;50.924;4.754;2023-02-01T07:44:44;21.80;;;4.97;;
40599;SDS011;26309;50.924;4.754;2023-02-01T07:47:09;23.53;;;5.00;;
40599;SDS011;26309;50.924;4.754;2023-02-01T07:49:35;19.67;;;4.37;;
40599;SDS011;26309;50.924;4.754;2023-02-01T07:52:01;20.40;;;5.27;;
40599;SDS011;26309;50.924;4.754;2023-02-01T07:54:27;23.50;;;4.50;;
40599;SDS011;26309;50.924;4.754;2023-02-01T07:56:52;18.17;;;4.90;;
40599;SDS011;26309;50.924;4.754;2023-02-01T07:59:18;27.57;;;4.33;;
40599;SDS011;26309;50.924;4.754;2023-02-01T08:01:44;19.37;;;5.07;;
40599;SDS011;26309;50.924;4.754;2023-02-01T08:04:18;23.17;;;5.57;;
40599;SDS011;26309;50.924;4.754;2023-02-01T08:06:44;22.75;;;5.18;;
40599;SDS011;26309;50.924;4.754;2023-02-01T08:09:10;25.97;;;4.67;;
40599;SDS011;26309;50.924;4.754;2023-02-01T08:11:36;18.60;;;4.27;;
40599;SDS011;26309;50.924;4.754;2023-02-01T08:14:03;27.07;;;5.77;;
40599;SDS011;26309;50.924;4.754;2023-02-01T08:16:30;26.97;;;5.73;;
40599;SDS011;26309;50.924;4.754;2023-02-01T08:18:56;28.13;;;4.60;;
40599;SDS011;26309;50.924;4.754;2023-02-01T08:21:23;27.27;;;4.93;;
40599;SDS011;26309;50.924;4.754;2023-02-01T08:23:50;27.07;;;5.67;;
40599;SDS011;26309;50.924;4.754;2023-02-01T08:26:18;19.57;;;4.70;;
40599;SDS011;26309;50.924;4.754;2023-02-01T08:28:55;21.43;;;4.80;;
40599;SDS011;26309;50.924;4.754;2023-02-01T08:31:23;30.43;;;5.00;;
40599;SDS011;26309;50.924;4.754;2023-02-01T08:33:51;24.13;;;4.70;;
40599;SDS011;26309;50.924;4.754;2023-02-01T08:36:18;21.67;;;4.37;;
40599;SDS011;26309;50.924;4.754;2023-02-01T08:38:44;22.30;;;4.70;;
40599;SDS011;26309;50.924;4.754;2023-02-01T08:41:11;20.73;;;5.17;;
40599;SDS011;26309;50.924;4.754;2023-02-01T08:43:40;21.67;;;4.97;;
40599;SDS011;26309;50.924;4.754;2023-02-01T08:46:06;25.70;;;5.10;;
40599;SDS011;26309;50.924;4.754;2023-02-01T08:48:33;23.73;;;4.90;;
40599;SDS011;26309;50.924;4.754;2023-02-01T08:51:03;24.80;;;5.17;;
40599;SDS011;26309;50.924;4.754;2023-02-01T08:53:30;23.37;;;4.60;;
40599;SDS011;26309;50.924;4.754;2023-02-01T08:55:56;27.03;;;5.17;;
40599;SDS011;26309;50.924;4.754;2023-02-01T08:58:22;24.37;;;5.97;;
40599;SDS011;26309;50.924;4.754;2023-02-01T09:00:48;19.87;;;4.73;;
40599;SDS011;26309;50.924;4.754;2023-02-01T09:03:14;26.63;;;5.07;;
40599;SDS011;26309;50.924;4.754;2023-02-01T09:05:40;22.90;;;5.37;;
40599;SDS011;26309;50.924;4.754;2023-02-01T09:08:06;27.63;;;4.97;;
40599;SDS011;26309;50.924;4.754;2023-02-01T09:10:33;23.97;;;5.27;;
40599;SDS011;26309;50.924;4.754;2023-02-01T09:12:59;23.73;;;5.10;;
40599;SDS011;26309;50.924;4.754;2023-02-01T09:15:25;20.47;;;5.00;;
40599;SDS011;26309;50.924;4.754;2023-02-01T09:17:51;27.70;;;5.73;;
40599;SDS011;26309;50.924;4.754;2023-02-01T09:20:17;25.33;;;5.10;;
40599;SDS011;26309;50.924;4.754;2023-02-01T09:22:45;17.50;;;4.90;;
40599;SDS011;26309;50.924;4.754;2023-02-01T09:25:10;23.33;;;5.30;;
40599;SDS011;26309;50.924;4.754;2023-02-01T09:27:36;21.80;;;4.87;;
40599;SDS011;26309;50.924;4.754;2023-02-01T09:30:03;19.97;;;4.77;;
40599;SDS011;26309;50.924;4.754;2023-02-01T09:32:29;21.57;;;4.90;;
40599;SDS011;26309;50.924;4.754;2023-02-01T09:34:55;20.87;;;5.13;;
40599;SDS011;26309;50.924;4.754;2023-02-01T09:37:22;26.23;;;4.90;;
40599;SDS011;26309;50.924;4.754;2023-02-01T09:39:47;21.37;;;4.47;;
40599;SDS011;26309;50.924;4.754;2023-02-01T09:47:48;21.47;;;5.07;;
40599;SDS011;26309;50.924;4.754;2023-02-01T09:50:28;28.87;;;4.87;;
40599;SDS011;26309;50.924;4.754;2023-02-01T10:00:59;25.10;;;5.40;;
40599;SDS011;26309;50.924;4.754;2023-02-01T10:03:28;22.10;;;4.97;;
40599;SDS011;26309;50.924;4.754;2023-02-01T10:14:04;28.57;;;4.90;;
40599;SDS011;26309;50.924;4.754;2023-02-01T10:16:52;21.27;;;4.47;;
40599;SDS011;26309;50.924;4.754;2023-02-01T10:25:29;28.07;;;4.83;;
40599;SDS011;26309;50.924;4.754;2023-02-01T10:28:03;22.80;;;5.07;;
40599;SDS011;26309;50.924;4.754;2023-02-01T10:30:40;20.77;;;4.73;;
40599;SDS011;26309;50.924;4.754;2023-02-01T10:33:18;20.53;;;4.33;;
40599;SDS011;26309;50.924;4.754;2023-02-01T10:35:52;14.27;;;3.83;;
40599;SDS011;26309;50.924;4.754;2023-02-01T10:38:26;19.97;;;4.20;;
40599;SDS011;26309;50.924;4.754;2023-02-01T10:40:55;25.77;;;4.73;;
40599;SDS011;26309;50.924;4.754;2023-02-01T10:43:39;28.10;;;5.37;;
40599;SDS011;26309;50.924;4.754;2023-02-01T10:46:07;26.57;;;4.87;;
40599;SDS011;26309;50.924;4.754;2023-02-01T10:48:33;23.27;;;4.33;;
40599;SDS011;26309;50.924;4.754;2023-02-01T10:53:52;19.07;;;4.80;;
40599;SDS011;26309;50.924;4.754;2023-02-01T10:56:23;18.47;;;3.67;;
40599;SDS011;26309;50.924;4.754;2023-02-01T10:58:50;21.13;;;4.33;;
40599;SDS011;26309;50.924;4.754;2023-02-01T11:01:21;19.70;;;3.90;;
40599;SDS011;26309;50.924;4.754;2023-02-01T11:03:58;17.30;;;4.30;;
40599;SDS011;26309;50.924;4.754;2023-02-01T11:06:38;18.03;;;4.20;;
40599;SDS011;26309;50.924;4.754;2023-02-01T11:17:03;22.17;;;4.53;;
40599;SDS011;26309;50.924;4.754;2023-02-01T11:19:46;20.70;;;4.07;;
40599;SDS011;26309;50.924;4.754;2023-02-01T11:22:21;17.07;;;3.67;;
40599;SDS011;26309;50.924;4.754;2023-02-01T11:24:47;15.70;;;4.00;;
40599;SDS011;26309;50.924;4.754;2023-02-01T11:27:14;22.20;;;4.40;;
40599;SDS011;26309;50.924;4.754;2023-02-01T11:29:43;18.63;;;3.73;;
40599;SDS011;26309;50.924;4.754;2023-02-01T11:32:13;19.63;;;3.50;;
40599;SDS011;26309;50.924;4.754;2023-02-01T11:34:43;15.77;;;3.80;;
40599;SDS011;26309;50.924;4.754;2023-02-01T11:37:25;13.43;;;3.93;;
40599;SDS011;26309;50.924;4.754;2023-02-01T11:40:00;19.70;;;3.90;;
40599;SDS011;26309;50.924;4.754;2023-02-01T11:45:53;15.27;;;3.10;;
40599;SDS011;26309;50.924;4.754;2023-02-01T11:48:20;16.37;;;3.30;;
40599;SDS011;26309;50.924;4.754;2023-02-01T11:50:51;20.30;;;4.03;;
40599;SDS011;26309;50.924;4.754;2023-02-01T11:58:59;18.38;;;3.78;;
40599;SDS011;26309;50.924;4.754;2023-02-01T12:12:48;15.52;;;3.58;;
40599;SDS011;26309;50.924;4.754;2023-02-01T12:15:38;16.52;;;3.58;;
40599;SDS011;26309;50.924;4.754;2023-02-01T12:18:32;17.27;;;3.78;;
40599;SDS011;26309;50.924;4.754;2023-02-01T12:21:21;15.68;;;3.42;;
40599;SDS011;26309;50.924;4.754;2023-02-01T12:26:57;13.77;;;3.17;;
40599;SDS011;26309;50.924;4.754;2023-02-01T12:29:53;17.70;;;3.07;;
40599;SDS011;26309;50.924;4.754;2023-02-01T12:32:41;12.07;;;3.27;;
40599;SDS011;26309;50.924;4.754;2023-02-01T12:37:51;16.37;;;3.10;;
40599;SDS011;26309;50.924;4.754;2023-02-01T12:46:16;16.23;;;4.13;;
40599;SDS011;26309;50.924;4.754;2023-02-01T12:51:51;16.20;;;3.07;;
40599;SDS011;26309;50.924;4.754;2023-02-01T12:54:36;11.77;;;2.80;;
40599;SDS011;26309;50.924;4.754;2023-02-01T12:57:25;14.30;;;3.07;;
40599;SDS011;26309;50.924;4.754;2023-02-01T13:00:01;13.03;;;2.23;;
40599;SDS011;26309;50.924;4.754;2023-02-01T13:05:42;14.67;;;2.83;;
40599;SDS011;26309;50.924;4.754;2023-02-01T13:08:16;14.83;;;3.17;;
40599;SDS011;26309;50.924;4.754;2023-02-01T13:10:49;14.90;;;2.72;;
40599;SDS011;26309;50.924;4.754;2023-02-01T13:13:35;13.83;;;2.70;;
40599;SDS011;26309;50.924;4.754;2023-02-01T13:16:44;14.97;;;2.97;;
40599;SDS011;26309;50.924;4.754;2023-02-01T13:19:17;14.13;;;2.87;;
40599;SDS011;26309;50.924;4.754;2023-02-01T13:22:02;9.73;;;2.60;;
40599;SDS011;26309;50.924;4.754;2023-02-01T13:24:41;12.73;;;2.87;;
40599;SDS011;26309;50.924;4.754;2023-02-01T13:27:11;10.88;;;2.70;;
40599;SDS011;26309;50.924;4.754;2023-02-01T13:29:41;10.40;;;2.92;;
40599;SDS011;26309;50.924;4.754;2023-02-01T13:44:08;15.23;;;3.15;;
40599;SDS011;26309;50.924;4.754;2023-02-01T13:46:44;13.23;;;2.87;;
40599;SDS011;26309;50.924;4.754;2023-02-01T13:49:27;12.63;;;2.85;;
40599;SDS011;26309;50.924;4.754;2023-02-01T13:51:57;10.60;;;2.20;;
40599;SDS011;26309;50.924;4.754;2023-02-01T13:54:25;13.13;;;2.58;;
40599;SDS011;26309;50.924;4.754;2023-02-01T13:57:12;10.10;;;2.55;;
40599;SDS011;26309;50.924;4.754;2023-02-01T14:00:07;8.30;;;2.63;;
40599;SDS011;26309;50.924;4.754;2023-02-01T14:13:30;9.73;;;2.63;;
40599;SDS011;26309;50.924;4.754;2023-02-01T14:16:15;10.07;;;2.43;;
40599;SDS011;26309;50.924;4.754;2023-02-01T14:42:23;14.95;;;2.80;;
40599;SDS011;26309;50.924;4.754;2023-02-01T14:56:09;11.30;;;2.80;;
40599;SDS011;26309;50.924;4.754;2023-02-01T15:01:01;14.60;;;3.10;;
40599;SDS011;26309;50.924;4.754;2023-02-01T15:09:03;18.10;;;3.53;;
40599;SDS011;26309;50.924;4.754;2023-02-01T15:14:43;10.90;;;2.67;;
40599;SDS011;26309;50.924;4.754;2023-02-01T15:17:28;15.17;;;3.27;;
40599;SDS011;26309;50.924;4.754;2023-02-01T15:20:00;17.10;;;3.37;;
40599;SDS011;26309;50.924;4.754;2023-02-01T15:22:31;12.70;;;3.07;;
40599;SDS011;26309;50.924;4.754;2023-02-01T15:24:57;20.70;;;3.20;;
40599;SDS011;26309;50.924;4.754;2023-02-01T15:27:25;15.60;;;3.08;;
40599;SDS011;26309;50.924;4.754;2023-02-01T15:29:52;17.13;;;3.13;;
40599;SDS011;26309;50.924;4.754;2023-02-01T15:32:28;11.03;;;3.30;;
40599;SDS011;26309;50.924;4.754;2023-02-01T15:35:03;14.97;;;3.60;;
40599;SDS011;26309;50.924;4.754;2023-02-01T15:37:29;20.60;;;3.83;;
40599;SDS011;26309;50.924;4.754;2023-02-01T15:42:49;14.97;;;3.77;;
40599;SDS011;26309;50.924;4.754;2023-02-01T15:45:21;14.30;;;3.57;;
40599;SDS011;26309;50.924;4.754;2023-02-01T15:47:50;18.57;;;3.70;;
40599;SDS011;26309;50.924;4.754;2023-02-01T15:50:18;20.23;;;3.67;;
40599;SDS011;26309;50.924;4.754;2023-02-01T15:52:46;11.17;;;3.37;;
40599;SDS011;26309;50.924;4.754;2023-02-01T15:55:21;15.80;;;3.50;;
40599;SDS011;26309;50.924;4.754;2023-02-01T15:58:23;14.27;;;3.03;;
40599;SDS011;26309;50.924;4.754;2023-02-01T16:00:55;14.20;;;3.57;;
40599;SDS011;26309;50.924;4.754;2023-02-01T16:03:25;16.97;;;3.30;;
40599;SDS011;26309;50.924;4.754;2023-02-01T16:05:56;16.17;;;3.70;;
40599;SDS011;26309;50.924;4.754;2023-02-01T16:08:24;7.87;;;2.90;;
40599;SDS011;26309;50.924;4.754;2023-02-01T16:10:53;17.40;;;4.30;;
40599;SDS011;26309;50.924;4.754;2023-02-01T16:13:25;17.67;;;3.80;;
40599;SDS011;26309;50.924;4.754;2023-02-01T16:15:51;12.63;;;3.10;;
40599;SDS011;26309;50.924;4.754;2023-02-01T16:18:17;17.87;;;3.40;;
40599;SDS011;26309;50.924;4.754;2023-02-01T16:20:43;21.80;;;3.67;;
40599;SDS011;26309;50.924;4.754;2023-02-01T16:23:09;16.00;;;3.53;;
40599;SDS011;26309;50.924;4.754;2023-02-01T16:25:36;22.53;;;3.60;;
40599;SDS011;26309;50.924;4.754;2023-02-01T16:28:02;14.30;;;3.30;;
40599;SDS011;26309;50.924;4.754;2023-02-01T16:30:30;18.47;;;3.90;;
40599;SDS011;26309;50.924;4.754;2023-02-01T16:32:57;21.93;;;3.87;;
40599;SDS011;26309;50.924;4.754;2023-02-01T16:35:25;26.37;;;3.90;;
40599;SDS011;26309;50.924;4.754;2023-02-01T16:38:03;17.27;;;4.10;;
40599;SDS011;26309;50.924;4.754;2023-02-01T16:40:33;14.53;;;3.87;;
40599;SDS011;26309;50.924;4.754;2023-02-01T16:42:59;19.87;;;3.90;;
40599;SDS011;26309;50.924;4.754;2023-02-01T16:45:25;11.63;;;3.40;;
40599;SDS011;26309;50.924;4.754;2023-02-01T16:47:52;14.47;;;3.40;;
40599;SDS011;26309;50.924;4.754;2023-02-01T16:50:21;18.23;;;4.07;;
40599;SDS011;26309;50.924;4.754;2023-02-01T16:52:49;17.93;;;3.73;;
40599;SDS011;26309;50.924;4.754;2023-02-01T16:55:16;12.60;;;3.87;;
40599;SDS011;26309;50.924;4.754;2023-02-01T16:57:44;20.67;;;3.77;;
40599;SDS011;26309;50.924;4.754;2023-02-01T17:00:10;16.20;;;3.67;;
40599;SDS011;26309;50.924;4.754;2023-02-01T17:02:37;20.60;;;4.50;;
40599;SDS011;26309;50.924;4.754;2023-02-01T17:05:04;16.73;;;3.93;;
40599;SDS011;26309;50.924;4.754;2023-02-01T17:07:30;17.87;;;3.57;;
40599;SDS011;26309;50.924;4.754;2023-02-01T17:09:56;35.93;;;3.83;;
40599;SDS011;26309;50.924;4.754;2023-02-01T17:12:23;23.53;;;4.77;;
40599;SDS011;26309;50.924;4.754;2023-02-01T17:14:57;15.67;;;3.67;;
40599;SDS011;26309;50.924;4.754;2023-02-01T17:17:30;17.80;;;3.70;;
40599;SDS011;26309;50.924;4.754;2023-02-01T17:20:02;17.53;;;3.73;;
40599;SDS011;26309;50.924;4.754;2023-02-01T17:22:29;15.47;;;3.57;;
40599;SDS011;26309;50.924;4.754;2023-02-01T17:24:54;14.93;;;3.77;;
40599;SDS011;26309;50.924;4.754;2023-02-01T17:27:20;17.37;;;4.37;;
40599;SDS011;26309;50.924;4.754;2023-02-01T17:29:46;18.27;;;4.10;;
40599;SDS011;26309;50.924;4.754;2023-02-01T17:32:18;21.27;;;4.03;;
40599;SDS011;26309;50.924;4.754;2023-02-01T17:34:45;19.73;;;4.60;;
40599;SDS011;26309;50.924;4.754;2023-02-01T17:37:31;16.57;;;3.77;;
40599;SDS011;26309;50.924;4.754;2023-02-01T17:42:29;15.90;;;3.63;;
40599;SDS011;26309;50.924;4.754;2023-02-01T17:44:56;27.27;;;4.60;;
40599;SDS011;26309;50.924;4.754;2023-02-01T17:47:24;17.90;;;4.07;;
40599;SDS011;26309;50.924;4.754;2023-02-01T17:49:50;21.47;;;4.60;;
40599;SDS011;26309;50.924;4.754;2023-02-01T17:52:20;16.37;;;3.97;;